createdAt,value
2022-08-17T00:18:57.620Z,1010.06
2022-08-17T00:46:37.414Z,1010.36
2022-08-17T01:15:27.291Z,1010.36
2022-08-17T01:44:15.376Z,1010.85
2022-08-17T02:12:49.062Z,1011.56
2022-08-17T02:41:33.430Z,1011.32
2022-08-17T03:10:21.130Z,1011.6
2022-08-17T03:39:07.599Z,1011.81
2022-08-17T04:07:54.724Z,1012.18
2022-08-17T04:36:35.739Z,1011.69
2022-08-17T05:05:16.826Z,1011.67
2022-08-17T05:33:49.737Z,1012.25
2022-08-17T06:02:48.267Z,1011.99
2022-08-17T06:31:08.251Z,1011.58
2022-08-17T06:59:57.262Z,1011.24
2022-08-17T07:28:20.299Z,1011.54
2022-08-17T07:57:10.260Z,1011.51
2022-08-17T08:25:42.759Z,1011.66
2022-08-17T08:54:27.846Z,1012.55
2022-08-17T09:22:50.107Z,1013.17
2022-08-17T09:51:38.076Z,1013.98
2022-08-17T10:20:28.082Z,1013.82
2022-08-17T10:49:01.953Z,1013.06
2022-08-17T11:17:43.255Z,1012.64
2022-08-17T11:46:19.607Z,1012.75
2022-08-17T12:15:12.688Z,1012.61
2022-08-17T12:43:21.361Z,1012.35
2022-08-17T13:11:52.066Z,1012.15
2022-08-17T13:40:30.350Z,1011.91
2022-08-17T14:09:21.665Z,1011.43
2022-08-17T14:37:41.813Z,1011.59
2022-08-17T15:06:24.377Z,1011.31
2022-08-17T15:35:13.076Z,1011.23
2022-08-17T16:04:27.028Z,1011.13
2022-08-17T16:32:33.620Z,1011.18
2022-08-17T17:01:00.637Z,1011.01
2022-08-17T17:29:49.568Z,1010.49
2022-08-17T17:58:04.738Z,1010.54
2022-08-17T18:26:49.380Z,1011.14
2022-08-17T18:55:23.500Z,1012
2022-08-17T19:24:09.788Z,1012.28
2022-08-17T19:52:48.492Z,1012.46
2022-08-17T20:21:32.038Z,1013.06
2022-08-17T20:50:12.001Z,1013.63
2022-08-17T21:18:50.109Z,1013.31
2022-08-17T21:47:38.600Z,1013.49
2022-08-17T22:16:30.250Z,1014.83
2022-08-17T22:44:44.730Z,1015.02
2022-08-17T23:13:23.578Z,1015.04
2022-08-17T23:42:01.772Z,1014.49
